createdAt,value
2023-01-11T00:00:27.432Z,100461.00
2023-01-11T00:02:58.373Z,100451.47
2023-01-11T00:05:25.257Z,100464.22
2023-01-11T00:07:52.009Z,100471.09
2023-01-11T00:10:19.744Z,100475.84
2023-01-11T00:12:46.934Z,100471.16
2023-01-11T00:15:14.537Z,100473.06
2023-01-11T00:17:41.984Z,100463.97
2023-01-11T00:20:10.600Z,100469.19
2023-01-11T00:22:38.159Z,100463.22
2023-01-11T00:25:05.724Z,100467.63
2023-01-11T00:27:32.718Z,100466.81
2023-01-11T00:29:59.639Z,100468.78
2023-01-11T00:32:27.332Z,100458.03
2023-01-11T00:34:54.513Z,100467.25
2023-01-11T00:37:21.699Z,100462.06
2023-01-11T00:39:48.685Z,100454.53
2023-01-11T00:42:33.971Z,100466.13
2023-01-11T00:45:18.951Z,100458.13
2023-01-11T00:47:57.558Z,100454.97
2023-01-11T00:50:25.556Z,100452.69
2023-01-11T00:52:52.405Z,100454.31
2023-01-11T00:55:19.277Z,100465.47
2023-01-11T00:57:45.933Z,100453.13
2023-01-11T01:00:13.208Z,100460.25
2023-01-11T01:02:40.113Z,100463.91
2023-01-11T01:05:07.326Z,100452.38
2023-01-11T01:07:34.085Z,100457.59
2023-01-11T01:10:01.024Z,100464.75
2023-01-11T01:12:46.452Z,100454.44
2023-01-11T01:15:13.328Z,100453.25
2023-01-11T01:17:40.077Z,100463.28
2023-01-11T01:20:07.723Z,100457.31
2023-01-11T01:22:34.752Z,100452.22
2023-01-11T01:25:01.923Z,100453.03
2023-01-11T01:27:28.566Z,100460.97
2023-01-11T01:29:55.274Z,100460.22
2023-01-11T01:32:22.025Z,100462.22
2023-01-11T01:34:48.789Z,100458.19
2023-01-11T01:37:15.992Z,100469.41
2023-01-11T01:39:42.793Z,100476.16
2023-01-11T01:42:18.055Z,100467.34
2023-01-11T01:45:06.794Z,100476.22
2023-01-11T01:47:41.008Z,100478.69
2023-01-11T01:50:29.386Z,100484.75
2023-01-11T01:53:10.569Z,100462.47
2023-01-11T01:55:41.041Z,100468.44
2023-01-11T01:58:10.977Z,100481.72
2023-01-11T02:00:43.004Z,100481.81
2023-01-11T02:03:21.338Z,100473.66
2023-01-11T02:05:48.596Z,100493.53
2023-01-11T02:08:25.174Z,100491.13
2023-01-11T02:10:53.396Z,100494.00
2023-01-11T02:13:20.683Z,100502.38
2023-01-11T02:16:07.869Z,100486.94
2023-01-11T02:18:36.136Z,100488.66
2023-01-11T02:21:17.516Z,100472.69
2023-01-11T02:23:50.370Z,100492.25
2023-01-11T02:26:16.900Z,100486.66
2023-01-11T02:29:15.857Z,100485.13
2023-01-11T02:32:21.181Z,100473.63
2023-01-11T02:35:02.095Z,100493.88
2023-01-11T02:37:41.559Z,100498.31
2023-01-11T02:40:17.711Z,100481.50
2023-01-11T02:43:09.870Z,100487.78
2023-01-11T02:45:54.308Z,100486.22
2023-01-11T02:48:46.492Z,100514.94
2023-01-11T02:51:18.276Z,100511.31
2023-01-11T02:53:49.610Z,100524.84
2023-01-11T02:56:20.585Z,100499.72
2023-01-11T02:58:50.540Z,100501.25
2023-01-11T03:01:19.653Z,100500.47
2023-01-11T03:03:46.506Z,100507.16
2023-01-11T03:06:25.393Z,100511.91
2023-01-11T03:08:57.871Z,100513.47
2023-01-11T03:12:09.775Z,100530.53
2023-01-11T03:15:17.085Z,100528.47
2023-01-11T03:17:54.600Z,100525.19
2023-01-11T03:20:28.492Z,100534.38
2023-01-11T03:23:07.699Z,100542.69
2023-01-11T03:25:45.134Z,100548.72
2023-01-11T03:28:17.207Z,100543.06
2023-01-11T03:31:18.063Z,100538.66
2023-01-11T03:34:04.738Z,100542.97
2023-01-11T03:36:41.731Z,100536.94
2023-01-11T03:39:08.518Z,100540.97
2023-01-11T03:41:38.179Z,100550.53
2023-01-11T03:44:08.233Z,100552.00
2023-01-11T03:46:39.158Z,100540.94
2023-01-11T03:49:32.546Z,100551.69
2023-01-11T03:52:00.797Z,100565.28
2023-01-11T03:54:29.964Z,100578.44
2023-01-11T03:57:17.002Z,100578.03
2023-01-11T03:59:44.156Z,100575.22
2023-01-11T04:02:19.105Z,100576.38
2023-01-11T04:04:46.172Z,100563.97
2023-01-11T04:07:13.067Z,100575.88
2023-01-11T04:09:39.841Z,100583.00
2023-01-11T04:12:06.844Z,100593.34
2023-01-11T04:14:33.515Z,100607.84
2023-01-11T04:17:00.343Z,100613.47
2023-01-11T04:19:26.985Z,100613.78
2023-01-11T04:21:53.911Z,100612.53
2023-01-11T04:24:21.603Z,100624.94
2023-01-11T04:26:48.354Z,100621.41
2023-01-11T04:29:15.091Z,100631.75
2023-01-11T04:31:42.029Z,100629.72
2023-01-11T04:34:08.792Z,100631.31
2023-01-11T04:36:35.555Z,100616.53
2023-01-11T04:39:02.182Z,100618.38
2023-01-11T04:41:47.904Z,100618.63
2023-01-11T04:44:14.673Z,100630.94
2023-01-11T04:46:41.404Z,100626.41
2023-01-11T04:49:08.102Z,100625.84
2023-01-11T04:51:34.808Z,100638.88
2023-01-11T04:54:01.529Z,100633.97
2023-01-11T04:56:29.411Z,100633.09
2023-01-11T04:58:56.114Z,100636.25
2023-01-11T05:01:22.949Z,100633.47
2023-01-11T05:03:49.813Z,100626.75
2023-01-11T05:06:16.668Z,100630.59
2023-01-11T05:08:47.442Z,100648.13
2023-01-11T05:11:15.482Z,100650.09
2023-01-11T05:13:42.167Z,100649.69
2023-01-11T05:16:20.122Z,100657.16
2023-01-11T05:18:57.586Z,100663.09
2023-01-11T05:21:26.117Z,100671.81
2023-01-11T05:23:53.742Z,100671.69
2023-01-11T05:26:27.912Z,100677.69
2023-01-11T05:28:56.436Z,100672.84
2023-01-11T05:31:23.227Z,100678.72
2023-01-11T05:33:49.929Z,100671.47
2023-01-11T05:36:18.896Z,100691.25
2023-01-11T05:38:46.809Z,100699.50
2023-01-11T05:41:13.842Z,100697.53
2023-01-11T05:43:59.768Z,100698.59
2023-01-11T05:46:27.886Z,100700.53
2023-01-11T05:48:55.787Z,100690.47
2023-01-11T05:51:22.757Z,100692.44
2023-01-11T05:53:49.627Z,100701.44
2023-01-11T05:56:16.484Z,100703.34
2023-01-11T05:58:43.123Z,100708.75
2023-01-11T06:01:12.247Z,100709.03
2023-01-11T06:03:38.993Z,100722.69
2023-01-11T06:06:06.081Z,100719.72
2023-01-11T06:08:32.817Z,100723.59
2023-01-11T06:10:59.642Z,100741.53
2023-01-11T06:13:26.571Z,100727.63
2023-01-11T06:16:04.184Z,100740.53
2023-01-11T06:18:33.648Z,100740.97
2023-01-11T06:21:01.400Z,100736.22
2023-01-11T06:23:29.817Z,100748.88
2023-01-11T06:25:57.211Z,100742.16
2023-01-11T06:28:23.908Z,100756.88
2023-01-11T06:30:54.976Z,100758.47
2023-01-11T06:33:23.261Z,100753.72
2023-01-11T06:35:49.908Z,100756.88
2023-01-11T06:38:18.268Z,100763.34
2023-01-11T06:40:52.342Z,100765.47
2023-01-11T06:43:19.145Z,100772.22
2023-01-11T06:45:45.847Z,100771.03
2023-01-11T06:48:12.590Z,100772.22
2023-01-11T06:50:39.327Z,100777.50
2023-01-11T06:53:06.619Z,100778.56
2023-01-11T06:55:33.412Z,100786.88
2023-01-11T06:58:00.237Z,100789.66
2023-01-11T07:00:27.116Z,100782.28
2023-01-11T07:02:53.894Z,100781.03
2023-01-11T07:05:20.636Z,100793.31
2023-01-11T07:07:47.418Z,100801.91
2023-01-11T07:10:15.975Z,100810.28
2023-01-11T07:12:42.944Z,100813.16
2023-01-11T07:15:10.932Z,100809.03
2023-01-11T07:17:38.886Z,100816.22
2023-01-11T07:20:07.345Z,100821.19
2023-01-11T07:22:35.815Z,100819.81
2023-01-11T07:25:04.083Z,100828.72
2023-01-11T07:27:31.811Z,100837.63
2023-01-11T07:30:01.755Z,100843.88
2023-01-11T07:32:29.839Z,100842.03
2023-01-11T07:34:57.274Z,100852.56
2023-01-11T07:37:29.547Z,100852.44
2023-01-11T07:39:57.179Z,100849.91
2023-01-11T07:42:42.634Z,100848.19
2023-01-11T07:45:10.556Z,100852.47
2023-01-11T07:47:37.401Z,100860.91
2023-01-11T07:50:04.717Z,100864.66
2023-01-11T07:52:31.345Z,100869.94
2023-01-11T07:55:02.498Z,100872.97
2023-01-11T07:57:30.660Z,100875.50
2023-01-11T07:59:57.377Z,100872.16
2023-01-11T08:02:24.226Z,100877.59
2023-01-11T08:04:51.042Z,100886.63
2023-01-11T08:07:17.843Z,100879.13
2023-01-11T08:09:44.594Z,100883.41
2023-01-11T08:12:29.958Z,100880.72
2023-01-11T08:14:57.514Z,100882.56
2023-01-11T08:17:24.966Z,100887.69
2023-01-11T08:19:52.518Z,100888.47
2023-01-11T08:22:19.823Z,100891.16
2023-01-11T08:24:47.292Z,100900.63
2023-01-11T08:27:14.614Z,100904.56
2023-01-11T08:29:44.579Z,100913.44
2023-01-11T08:32:13.032Z,100914.41
2023-01-11T08:34:40.718Z,100918.19
2023-01-11T08:37:08.039Z,100924.78
2023-01-11T08:39:35.558Z,100923.50
2023-01-11T08:42:03.435Z,100935.09
2023-01-11T08:44:34.693Z,100943.41
2023-01-11T08:47:03.371Z,100943.19
2023-01-11T08:49:30.948Z,100946.56
2023-01-11T08:51:58.273Z,100948.50
2023-01-11T08:54:25.716Z,100938.31
2023-01-11T08:56:53.163Z,100942.06
2023-01-11T08:59:22.235Z,100950.16
2023-01-11T09:01:50.480Z,100948.16
2023-01-11T09:04:24.705Z,100954.88
2023-01-11T09:06:53.464Z,100950.81
2023-01-11T09:09:20.896Z,100961.00
2023-01-11T09:11:57.514Z,100970.38
2023-01-11T09:14:26.936Z,100971.19
2023-01-11T09:16:55.150Z,100974.44
2023-01-11T09:19:22.511Z,100974.88
2023-01-11T09:21:50.230Z,100971.19
2023-01-11T09:24:17.921Z,100975.25
2023-01-11T09:26:45.463Z,100978.53
2023-01-11T09:29:13.118Z,100975.03
2023-01-11T09:31:41.340Z,100975.72
2023-01-11T09:34:11.216Z,100977.91
2023-01-11T09:36:40.553Z,100981.72
2023-01-11T09:39:11.888Z,100977.88
2023-01-11T09:42:21.868Z,100981.56
2023-01-11T09:44:56.980Z,100981.44
2023-01-11T09:48:05.036Z,100967.28
2023-01-11T09:50:40.243Z,100971.53
2023-01-11T09:53:31.207Z,100963.31
2023-01-11T09:56:01.717Z,100966.97
2023-01-11T09:58:51.113Z,100976.13
2023-01-11T10:01:31.726Z,100990.59
2023-01-11T10:04:06.479Z,100985.56
2023-01-11T10:06:48.439Z,100985.88
2023-01-11T10:18:26.622Z,101009.69
2023-01-11T10:19:19.606Z,100997.22
2023-01-11T10:21:58.476Z,101007.63
2023-01-11T10:24:33.817Z,101018.97
2023-01-11T10:27:08.620Z,101010.25
2023-01-11T10:29:52.129Z,101012.69
2023-01-11T10:32:40.518Z,101018.06
2023-01-11T10:35:30.267Z,101019.44
2023-01-11T10:38:18.346Z,101011.25
2023-01-11T10:41:08.706Z,101024.97
2023-01-11T10:43:42.399Z,101023.09
2023-01-11T10:46:17.905Z,101030.09
2023-01-11T10:48:47.202Z,101022.72
2023-01-11T10:51:37.120Z,101011.88
2023-01-11T10:54:19.216Z,101014.88
2023-01-11T10:57:03.075Z,101002.34
2023-01-11T11:00:00.555Z,101011.38
2023-01-11T11:02:50.279Z,101006.09
2023-01-11T11:05:39.447Z,101002.41
2023-01-11T11:08:29.527Z,101008.97
2023-01-11T11:11:04.623Z,101008.00
2023-01-11T11:13:36.217Z,101004.03
2023-01-11T11:16:21.609Z,101008.66
2023-01-11T11:19:00.958Z,101012.78
2023-01-11T11:21:37.768Z,101005.00
2023-01-11T11:24:16.337Z,101004.03
2023-01-11T11:26:48.552Z,101009.06
2023-01-11T11:29:24.555Z,101014.00
2023-01-11T11:31:54.237Z,101025.91
2023-01-11T11:34:28.728Z,101019.19
2023-01-11T11:37:01.216Z,101026.09
2023-01-11T11:39:34.539Z,101035.63
2023-01-11T11:42:09.157Z,101028.53
2023-01-11T11:44:39.456Z,101029.16
2023-01-11T11:47:17.534Z,101021.53
2023-01-11T11:49:48.940Z,101015.59
2023-01-11T11:52:20.021Z,101022.13
2023-01-11T11:54:59.576Z,101024.19
2023-01-11T11:57:43.884Z,101024.47
2023-01-11T12:00:34.737Z,101016.78
2023-01-11T12:03:18.079Z,101005.09
2023-01-11T12:05:53.230Z,101022.59
2023-01-11T12:08:24.258Z,101032.56
2023-01-11T12:10:59.897Z,101035.00
2023-01-11T12:13:32.400Z,101039.56
2023-01-11T12:16:24.204Z,101033.41
2023-01-11T12:18:54.321Z,101041.91
2023-01-11T12:21:27.543Z,101048.41
2023-01-11T12:24:21.021Z,101037.28
2023-01-11T12:27:11.481Z,101040.47
2023-01-11T12:30:02.517Z,101027.28
2023-01-11T12:33:12.495Z,101049.88
2023-01-11T12:35:57.309Z,101039.78
2023-01-11T12:38:39.077Z,101048.59
2023-01-11T12:41:45.616Z,101042.13
2023-01-11T12:44:24.396Z,101035.44
2023-01-11T12:47:00.625Z,101035.72
2023-01-11T12:49:35.189Z,101032.72
2023-01-11T12:52:29.502Z,101031.69
2023-01-11T12:55:44.960Z,101031.56
2023-01-11T12:58:30.468Z,101027.63
2023-01-11T13:01:31.516Z,101029.28
2023-01-11T13:04:12.158Z,101031.50
2023-01-11T13:07:06.268Z,101038.19
2023-01-11T13:10:01.677Z,101031.91
2023-01-11T13:12:44.065Z,101039.78
2023-01-11T13:15:19.896Z,101022.72
2023-01-11T13:18:02.919Z,101035.44
2023-01-11T13:21:03.964Z,101035.66
2023-01-11T13:23:48.755Z,101026.63
2023-01-11T13:26:42.499Z,101015.97
2023-01-11T13:29:20.526Z,101025.13
2023-01-11T13:31:50.626Z,101023.88
2023-01-11T13:34:27.286Z,101021.44
2023-01-11T13:37:01.309Z,101026.31
2023-01-11T13:39:40.495Z,101020.63
2023-01-11T13:42:31.794Z,101014.50
2023-01-11T13:45:17.359Z,101025.53
2023-01-11T13:47:55.509Z,101013.06
2023-01-11T13:50:39.383Z,101010.28
2023-01-11T13:53:34.101Z,100999.03
2023-01-11T13:56:13.331Z,101007.28
2023-01-11T13:59:15.414Z,101012.38
2023-01-11T14:01:57.055Z,101002.88
2023-01-11T14:04:58.488Z,101001.63
2023-01-11T14:07:50.448Z,101017.94
2023-01-11T14:10:38.637Z,101012.19
2023-01-11T14:13:45.287Z,101004.97
2023-01-11T14:16:22.977Z,101011.38
2023-01-11T14:19:13.774Z,101017.38
2023-01-11T14:21:59.914Z,101024.94
2023-01-11T14:24:31.162Z,101014.84
2023-01-11T14:27:16.607Z,101012.28
2023-01-11T14:30:17.085Z,101015.31
2023-01-11T14:32:51.625Z,101010.78
2023-01-11T14:35:46.590Z,101021.22
2023-01-11T14:38:27.435Z,101010.34
2023-01-11T14:41:00.838Z,101015.47
2023-01-11T14:43:48.917Z,100996.50
2023-01-11T14:46:21.907Z,100996.94
2023-01-11T14:49:10.821Z,100999.84
2023-01-11T14:51:59.884Z,101005.97
2023-01-11T14:54:50.971Z,101002.88
2023-01-11T14:57:41.876Z,100998.44
2023-01-11T15:00:21.056Z,100996.03
2023-01-11T15:03:03.435Z,100997.53
2023-01-11T15:05:34.321Z,101000.53
2023-01-11T15:08:11.916Z,100995.47
2023-01-11T15:11:02.155Z,100987.38
2023-01-11T15:13:33.897Z,100965.25
2023-01-11T15:16:27.329Z,100979.84
2023-01-11T15:18:57.314Z,100980.56
2023-01-11T15:21:28.937Z,100978.38
2023-01-11T15:24:01.927Z,100989.13
2023-01-11T15:26:32.931Z,101008.59
2023-01-11T15:29:04.011Z,100992.28
2023-01-11T15:31:36.558Z,100992.97
2023-01-11T15:34:29.387Z,101009.75
2023-01-11T15:37:09.757Z,100996.19
2023-01-11T15:40:03.873Z,100996.19
2023-01-11T15:42:48.623Z,100985.22
2023-01-11T15:46:13.977Z,100984.63
2023-01-11T15:49:08.257Z,100979.78
2023-01-11T15:52:03.956Z,100988.47
2023-01-11T15:54:43.217Z,100986.84
2023-01-11T15:57:41.163Z,100994.34
2023-01-11T16:00:48.164Z,100992.63
2023-01-11T16:03:55.504Z,101002.81
2023-01-11T16:06:35.173Z,100985.81
2023-01-11T16:09:46.175Z,100988.22
2023-01-11T16:12:21.716Z,100995.25
2023-01-11T16:15:18.515Z,100998.03
2023-01-11T16:17:49.141Z,100988.81
2023-01-11T16:20:22.136Z,100995.38
2023-01-11T16:23:06.513Z,100991.34
2023-01-11T16:25:41.898Z,100998.63
2023-01-11T16:28:18.641Z,101013.34
2023-01-11T16:30:49.615Z,101001.19
2023-01-11T16:33:29.774Z,100995.63
2023-01-11T16:36:29.063Z,100995.84
2023-01-11T16:39:13.748Z,100992.94
2023-01-11T16:41:48.935Z,100985.88
2023-01-11T16:44:29.986Z,100991.53
2023-01-11T16:47:28.278Z,100989.22
2023-01-11T16:50:23.647Z,100965.59
2023-01-11T16:53:05.813Z,100975.69
2023-01-11T16:55:37.696Z,100977.53
2023-01-11T16:58:27.583Z,100970.13
2023-01-11T17:01:06.605Z,100971.84
2023-01-11T17:03:39.810Z,100965.66
2023-01-11T17:06:12.219Z,100971.53
2023-01-11T17:08:42.641Z,100964.88
2023-01-11T17:11:17.750Z,100964.06
2023-01-11T17:14:19.433Z,100957.44
2023-01-11T17:16:55.368Z,100967.09
2023-01-11T17:19:32.778Z,100970.91
2023-01-11T17:22:09.897Z,100968.88
2023-01-11T17:24:43.941Z,100968.06
2023-01-11T17:27:29.038Z,100966.28
2023-01-11T17:30:00.176Z,100950.28
2023-01-11T17:32:42.796Z,100941.94
2023-01-11T17:35:21.898Z,100947.75
2023-01-11T17:37:51.693Z,100942.63
2023-01-11T17:40:32.686Z,100949.56
2023-01-11T17:43:32.277Z,100942.38
2023-01-11T17:46:03.978Z,100931.44
2023-01-11T17:48:34.051Z,100951.13
2023-01-11T17:51:05.256Z,100943.56
2023-01-11T17:53:36.421Z,100933.69
2023-01-11T17:56:08.508Z,100933.94
2023-01-11T17:58:39.468Z,100928.22
2023-01-11T18:01:16.467Z,100914.84
2023-01-11T18:03:55.718Z,100917.28
2023-01-11T18:06:38.457Z,100909.19
2023-01-11T18:09:19.621Z,100919.22
2023-01-11T18:11:49.646Z,100905.69
2023-01-11T18:14:28.545Z,100900.63
2023-01-11T18:17:05.586Z,100888.16
2023-01-11T18:19:43.902Z,100889.25
2023-01-11T18:22:59.016Z,100902.91
2023-01-11T18:25:31.151Z,100887.28
2023-01-11T18:28:23.825Z,100885.91
2023-01-11T18:30:59.652Z,100882.34
2023-01-11T18:33:33.895Z,100878.06
2023-01-11T18:36:07.928Z,100876.66
2023-01-11T18:38:38.564Z,100867.75
2023-01-11T18:41:28.146Z,100864.06
2023-01-11T18:44:00.527Z,100865.09
2023-01-11T18:46:31.578Z,100864.75
2023-01-11T18:49:01.423Z,100860.03
2023-01-11T18:51:35.985Z,100850.63
2023-01-11T18:54:07.987Z,100850.75
2023-01-11T18:56:37.868Z,100861.41
2023-01-11T18:59:07.648Z,100847.06
2023-01-11T19:01:52.701Z,100843.59
2023-01-11T19:04:27.698Z,100842.78
2023-01-11T19:06:57.307Z,100832.84
2023-01-11T19:09:26.620Z,100824.03
2023-01-11T19:11:56.025Z,100819.66
2023-01-11T19:14:27.871Z,100829.47
2023-01-11T19:16:57.331Z,100820.34
2023-01-11T19:19:26.609Z,100816.41
2023-01-11T19:21:58.605Z,100816.09
2023-01-11T19:24:27.943Z,100808.19
2023-01-11T19:26:57.255Z,100786.94
2023-01-11T19:29:26.773Z,100781.94
2023-01-11T19:31:58.579Z,100776.41
2023-01-11T19:34:30.437Z,100798.94
2023-01-11T19:36:59.689Z,100804.72
2023-01-11T19:39:29.564Z,100818.81
2023-01-11T19:42:04.216Z,100811.53
2023-01-11T19:44:37.125Z,100803.88
2023-01-11T19:47:13.607Z,100791.19
2023-01-11T19:49:44.510Z,100798.78
2023-01-11T19:52:20.078Z,100798.78
2023-01-11T19:54:53.310Z,100792.53
2023-01-11T19:57:26.165Z,100800.28
2023-01-11T19:59:55.020Z,100812.19
2023-01-11T20:02:24.388Z,100798.53
2023-01-11T20:04:54.011Z,100791.25
2023-01-11T20:07:24.963Z,100791.59
2023-01-11T20:09:54.304Z,100799.22
2023-01-11T20:12:23.571Z,100794.81
2023-01-11T20:14:56.932Z,100798.19
2023-01-11T20:17:30.068Z,100807.81
2023-01-11T20:19:59.534Z,100813.34
2023-01-11T20:22:29.732Z,100810.34
2023-01-11T20:25:00.149Z,100821.00
2023-01-11T20:27:29.677Z,100819.13
2023-01-11T20:30:00.036Z,100820.13
2023-01-11T20:32:41.430Z,100826.75
2023-01-11T20:35:12.937Z,100822.09
2023-01-11T20:37:49.324Z,100821.66
2023-01-11T20:40:20.106Z,100822.34
2023-01-11T20:42:49.438Z,100823.16
2023-01-11T20:45:20.053Z,100828.72
2023-01-11T20:47:49.241Z,100831.50
2023-01-11T20:50:18.571Z,100846.56
2023-01-11T20:52:50.690Z,100843.97
2023-01-11T20:55:20.444Z,100847.66
2023-01-11T20:57:50.866Z,100850.44
2023-01-11T21:00:21.879Z,100831.00
2023-01-11T21:02:52.644Z,100841.78
2023-01-11T21:05:21.976Z,100834.81
2023-01-11T21:07:54.405Z,100851.97
2023-01-11T21:10:23.960Z,100849.19
2023-01-11T21:12:55.302Z,100844.34
2023-01-11T21:15:25.335Z,100844.53
2023-01-11T21:17:55.328Z,100831.56
2023-01-11T21:20:24.623Z,100823.13
2023-01-11T21:22:53.966Z,100822.63
2023-01-11T21:25:24.164Z,100819.31
2023-01-11T21:27:54.708Z,100814.47
2023-01-11T21:30:24.531Z,100810.09
2023-01-11T21:32:55.999Z,100805.44
2023-01-11T21:35:25.702Z,100806.34
2023-01-11T21:37:55.069Z,100810.03
2023-01-11T21:40:24.559Z,100796.13
2023-01-11T21:42:56.652Z,100806.09
2023-01-11T21:45:26.255Z,100789.03
2023-01-11T21:47:55.339Z,100793.91
2023-01-11T21:50:25.365Z,100795.53
2023-01-11T21:52:56.225Z,100787.47
2023-01-11T21:55:25.447Z,100790.97
2023-01-11T21:57:54.830Z,100792.00
2023-01-11T22:00:24.163Z,100791.09
2023-01-11T22:02:53.285Z,100792.41
2023-01-11T22:05:22.106Z,100785.84
2023-01-11T22:07:51.348Z,100799.38
2023-01-11T22:10:20.314Z,100798.88
2023-01-11T22:12:48.651Z,100796.72
2023-01-11T22:15:17.139Z,100817.06
2023-01-11T22:17:45.726Z,100802.91
2023-01-11T22:20:16.084Z,100806.38
2023-01-11T22:22:44.942Z,100801.75
2023-01-11T22:25:12.979Z,100799.31
2023-01-11T22:27:42.241Z,100806.13
2023-01-11T22:30:10.759Z,100803.59
2023-01-11T22:32:38.203Z,100801.06
2023-01-11T22:35:05.838Z,100814.59
2023-01-11T22:37:32.850Z,100815.41
2023-01-11T22:40:01.678Z,100816.81
2023-01-11T22:42:28.715Z,100820.72
2023-01-11T22:44:56.260Z,100824.88
2023-01-11T22:47:23.012Z,100828.94
2023-01-11T22:49:54.421Z,100835.31
2023-01-11T22:52:21.860Z,100825.69
2023-01-11T22:54:49.127Z,100834.94
2023-01-11T22:57:16.025Z,100830.19
2023-01-11T22:59:43.193Z,100827.41
2023-01-11T23:02:10.076Z,100822.28
2023-01-11T23:04:36.915Z,100830.56
2023-01-11T23:07:04.800Z,100821.03
2023-01-11T23:09:31.795Z,100834.59
2023-01-11T23:12:17.283Z,100830.00
2023-01-11T23:14:43.944Z,100834.84
2023-01-11T23:17:11.418Z,100834.41
2023-01-11T23:19:40.369Z,100839.97
2023-01-11T23:22:08.762Z,100834.84
2023-01-11T23:24:36.973Z,100836.94
2023-01-11T23:27:04.726Z,100829.28
2023-01-11T23:29:31.634Z,100825.88
2023-01-11T23:31:58.456Z,100821.78
2023-01-11T23:34:25.251Z,100830.63
2023-01-11T23:36:52.162Z,100821.03
2023-01-11T23:39:19.371Z,100826.59
2023-01-11T23:42:04.913Z,100826.16
2023-01-11T23:44:31.867Z,100817.81
2023-01-11T23:47:17.691Z,100817.81
2023-01-11T23:49:45.523Z,100819.06
2023-01-11T23:52:12.335Z,100821.50
2023-01-11T23:54:39.146Z,100804.34
2023-01-11T23:57:06.393Z,100808.41
2023-01-11T23:59:33.598Z,100800.41
